createdAt,value
2022-11-28T00:00:17.754Z,-2.87
2022-11-28T00:01:35.767Z,-2.89
2022-11-28T00:02:09.695Z,-2.94
2022-11-28T00:02:43.083Z,-2.92
2022-11-28T00:03:16.613Z,-2.93
2022-11-28T00:03:50.060Z,-2.92
2022-11-28T00:04:23.871Z,-2.92
2022-11-28T00:04:57.463Z,-2.90
2022-11-28T00:05:31.014Z,-2.89
2022-11-28T00:06:06.203Z,-2.88
2022-11-28T00:06:45.469Z,-2.86
2022-11-28T00:07:19.553Z,-2.86
2022-11-28T00:07:52.954Z,-2.86
2022-11-28T00:08:26.212Z,-2.86
2022-11-28T00:09:00.637Z,-2.92
2022-11-28T00:09:34.065Z,-2.83
2022-11-28T00:10:08.178Z,-2.83
2022-11-28T00:10:41.760Z,-2.83
2022-11-28T00:11:20.328Z,-2.81
2022-11-28T00:11:54.774Z,-2.80
2022-11-28T00:12:28.878Z,-2.80
2022-11-28T00:13:02.193Z,-2.78
2022-11-28T00:13:36.877Z,-2.78
2022-11-28T00:14:14.846Z,-2.78
2022-11-28T00:14:51.328Z,-2.78
2022-11-28T00:15:24.800Z,-2.77
2022-11-28T00:16:00.258Z,-2.77
2022-11-28T00:16:33.845Z,-2.76
2022-11-28T00:17:07.183Z,-2.75
2022-11-28T00:17:40.579Z,-2.74
2022-11-28T00:18:13.840Z,-2.74
2022-11-28T00:18:47.718Z,-2.74
2022-11-28T00:19:21.077Z,-2.74
2022-11-28T00:19:54.485Z,-2.73
2022-11-28T00:20:27.843Z,-2.72
2022-11-28T00:21:03.101Z,-2.71
2022-11-28T00:21:36.510Z,-2.71
2022-11-28T00:22:09.845Z,-2.70
2022-11-28T00:22:43.128Z,-2.69
2022-11-28T00:23:16.428Z,-2.70
2022-11-28T00:23:50.422Z,-2.68
2022-11-28T00:24:24.058Z,-2.68
2022-11-28T00:24:57.464Z,-2.67
2022-11-28T00:25:30.713Z,-2.67
2022-11-28T00:26:11.117Z,-2.66
2022-11-28T00:26:44.657Z,-2.67
2022-11-28T00:27:17.902Z,-2.65
2022-11-28T00:27:51.868Z,-2.65
2022-11-28T00:28:25.451Z,-2.64
2022-11-28T00:29:00.852Z,-2.64
2022-11-28T00:29:36.337Z,-2.63
2022-11-28T00:30:11.071Z,-2.63
2022-11-28T00:30:45.481Z,-2.62
2022-11-28T00:31:22.044Z,-2.61
2022-11-28T00:31:55.434Z,-2.61
2022-11-28T00:32:28.830Z,-2.61
2022-11-28T00:33:02.253Z,-2.66
2022-11-28T00:33:35.838Z,-2.60
2022-11-28T00:34:10.824Z,-2.60
2022-11-28T00:34:44.732Z,-2.59
2022-11-28T00:35:18.149Z,-2.59
2022-11-28T00:35:51.723Z,-2.60
2022-11-28T00:36:25.688Z,-2.58
2022-11-28T00:36:59.229Z,-2.58
2022-11-28T00:37:32.459Z,-2.57
2022-11-28T00:38:06.112Z,-2.56
2022-11-28T00:38:39.704Z,-2.57
2022-11-28T00:39:14.193Z,-2.58
2022-11-28T00:39:47.602Z,-2.59
2022-11-28T00:40:20.920Z,-2.60
2022-11-28T00:41:06.915Z,-2.62
2022-11-28T00:41:40.510Z,-2.66
2022-11-28T00:42:13.782Z,-2.67
2022-11-28T00:42:47.142Z,-2.68
2022-11-28T00:43:20.447Z,-2.70
2022-11-28T00:43:53.813Z,-2.71
2022-11-28T00:44:27.114Z,-2.74
2022-11-28T00:45:00.425Z,-2.77
2022-11-28T00:45:34.039Z,-2.77
2022-11-28T00:46:07.819Z,-2.78
2022-11-28T00:46:41.682Z,-2.83
2022-11-28T00:47:15.840Z,-2.85
2022-11-28T00:47:49.503Z,-2.88
2022-11-28T00:48:23.463Z,-2.90
2022-11-28T00:48:58.595Z,-2.90
2022-11-28T00:49:32.014Z,-2.90
2022-11-28T00:50:05.917Z,-2.90
2022-11-28T00:50:39.190Z,-2.89
2022-11-28T00:51:23.516Z,-2.90
2022-11-28T00:51:56.877Z,-2.92
2022-11-28T00:52:32.690Z,-2.92
2022-11-28T00:53:05.945Z,-2.91
2022-11-28T00:53:42.346Z,-2.91
2022-11-28T00:54:15.890Z,-2.91
2022-11-28T00:54:49.361Z,-3.01
2022-11-28T00:55:22.720Z,-2.92
2022-11-28T00:55:56.161Z,-2.91
2022-11-28T00:56:32.601Z,-2.90
2022-11-28T00:57:05.987Z,-2.90
2022-11-28T00:57:39.373Z,-2.89
2022-11-28T00:58:13.259Z,-2.88
2022-11-28T00:58:47.980Z,-2.87
2022-11-28T00:59:21.458Z,-2.86
2022-11-28T00:59:54.819Z,-2.85
2022-11-28T01:00:28.138Z,-2.85
2022-11-28T01:01:09.098Z,-2.84
2022-11-28T01:01:44.231Z,-2.84
2022-11-28T01:02:17.719Z,-2.86
2022-11-28T01:02:51.294Z,-2.86
2022-11-28T01:03:24.859Z,-2.88
2022-11-28T01:04:04.395Z,-2.87
2022-11-28T01:04:37.724Z,-2.87
2022-11-28T01:05:11.145Z,-2.96
2022-11-28T01:05:44.501Z,-2.89
2022-11-28T01:06:26.458Z,-2.87
2022-11-28T01:06:59.867Z,-2.91
2022-11-28T01:07:34.356Z,-2.88
2022-11-28T01:08:08.049Z,-2.85
2022-11-28T01:08:41.479Z,-2.89
2022-11-28T01:09:24.455Z,-2.90
2022-11-28T01:09:57.764Z,-2.91
2022-11-28T01:10:31.198Z,-2.91
2022-11-28T01:11:05.646Z,-2.89
2022-11-28T01:11:41.366Z,-2.89
2022-11-28T01:12:14.619Z,-2.89
2022-11-28T01:12:47.951Z,-2.90
2022-11-28T01:13:21.283Z,-2.89
2022-11-28T01:13:57.072Z,-2.89
2022-11-28T01:14:30.741Z,-2.89
2022-11-28T01:15:10.400Z,-2.89
2022-11-28T01:15:43.853Z,-2.89
2022-11-28T01:16:17.367Z,-2.90
2022-11-28T01:16:50.918Z,-2.91
2022-11-28T01:17:24.449Z,-2.89
2022-11-28T01:17:57.956Z,-2.89
2022-11-28T01:18:31.250Z,-2.88
2022-11-28T01:19:04.729Z,-2.87
2022-11-28T01:19:38.402Z,-2.86
2022-11-28T01:20:12.307Z,-2.84
2022-11-28T01:20:45.601Z,-2.88
2022-11-28T01:21:20.210Z,-2.81
2022-11-28T01:21:53.786Z,-2.83
2022-11-28T01:22:27.439Z,-2.80
2022-11-28T01:23:00.724Z,-2.79
2022-11-28T01:23:34.441Z,-2.78
2022-11-28T01:24:07.954Z,-2.77
2022-11-28T01:24:42.674Z,-2.76
2022-11-28T01:25:16.507Z,-2.74
2022-11-28T01:25:52.090Z,-2.73
2022-11-28T01:26:27.996Z,-2.72
2022-11-28T01:27:01.443Z,-2.72
2022-11-28T01:27:36.515Z,-2.72
2022-11-28T01:28:09.831Z,-2.71
2022-11-28T01:28:43.113Z,-2.69
2022-11-28T01:29:16.715Z,-2.69
2022-11-28T01:29:52.399Z,-2.68
2022-11-28T01:30:25.678Z,-2.68
2022-11-28T01:31:04.888Z,-2.67
2022-11-28T01:31:38.789Z,-2.67
2022-11-28T01:32:11.972Z,-2.68
2022-11-28T01:32:45.202Z,-2.68
2022-11-28T01:33:18.527Z,-2.70
2022-11-28T01:33:53.211Z,-2.70
2022-11-28T01:34:29.189Z,-2.70
2022-11-28T01:35:02.458Z,-2.70
2022-11-28T01:35:35.844Z,-2.72
2022-11-28T01:36:10.989Z,-2.72
2022-11-28T01:36:44.671Z,-2.73
2022-11-28T01:37:19.787Z,-2.72
2022-11-28T01:37:53.111Z,-2.72
2022-11-28T01:38:27.837Z,-2.77
2022-11-28T01:39:01.379Z,-2.81
2022-11-28T01:39:34.761Z,-2.79
2022-11-28T01:40:08.839Z,-2.77
2022-11-28T01:40:51.228Z,-2.68
2022-11-28T01:41:27.945Z,-2.74
2022-11-28T01:42:01.632Z,-2.73
2022-11-28T01:42:35.088Z,-2.82
2022-11-28T01:43:10.771Z,-2.91
2022-11-28T01:44:00.936Z,-2.97
2022-11-28T01:44:34.421Z,-3.00
2022-11-28T01:45:12.547Z,-2.96
2022-11-28T01:45:46.346Z,-3.03
2022-11-28T01:46:19.648Z,-3.02
2022-11-28T01:46:52.951Z,-3.12
2022-11-28T01:47:30.683Z,-3.12
2022-11-28T01:48:04.401Z,-3.13
2022-11-28T01:48:42.131Z,-3.12
2022-11-28T01:49:15.502Z,-3.10
2022-11-28T01:49:50.309Z,-3.09
2022-11-28T01:50:24.807Z,-3.08
2022-11-28T01:51:01.302Z,-3.05
2022-11-28T01:51:36.295Z,-3.02
2022-11-28T01:52:13.622Z,-3.10
2022-11-28T01:52:50.067Z,-2.99
2022-11-28T01:53:26.443Z,-2.98
2022-11-28T01:54:00.402Z,-2.96
2022-11-28T01:54:36.395Z,-2.94
2022-11-28T01:55:15.048Z,-2.93
2022-11-28T01:56:20.393Z,-2.91
2022-11-28T01:57:01.154Z,-2.92
2022-11-28T01:57:35.067Z,-2.91
2022-11-28T01:58:10.162Z,-2.90
2022-11-28T01:58:47.529Z,-2.87
2022-11-28T01:59:26.895Z,-2.85
2022-11-28T02:00:11.863Z,-2.83
2022-11-28T02:00:49.153Z,-2.83
2022-11-28T02:01:27.500Z,-2.81
2022-11-28T02:02:01.785Z,-2.80
2022-11-28T02:02:41.142Z,-2.78
2022-11-28T02:03:30.152Z,-2.76
2022-11-28T02:04:04.834Z,-2.76
2022-11-28T02:04:38.132Z,-2.76
2022-11-28T02:05:11.709Z,-2.76
2022-11-28T02:05:45.967Z,-2.78
2022-11-28T02:06:22.267Z,-2.77
2022-11-28T02:06:55.974Z,-2.81
2022-11-28T02:07:29.562Z,-2.82
2022-11-28T02:08:03.942Z,-2.81
2022-11-28T02:08:37.647Z,-2.80
2022-11-28T02:09:16.216Z,-2.79
2022-11-28T02:09:49.606Z,-2.76
2022-11-28T02:10:32.985Z,-2.72
2022-11-28T02:11:11.933Z,-2.77
2022-11-28T02:12:06.695Z,-2.80
2022-11-28T02:13:07.884Z,-2.83
2022-11-28T02:14:01.317Z,-2.86
2022-11-28T02:14:49.465Z,-2.88
2022-11-28T02:15:46.810Z,-2.87
2022-11-28T02:16:54.663Z,-2.85
2022-11-28T02:17:59.841Z,-2.86
2022-11-28T02:18:50.625Z,-2.85
2022-11-28T02:20:08.473Z,-2.85
2022-11-28T02:21:08.602Z,-2.85
2022-11-28T02:21:41.926Z,-2.83
2022-11-28T02:22:28.341Z,-2.82
2022-11-28T02:23:04.506Z,-2.81
2022-11-28T02:23:37.723Z,-2.80
2022-11-28T02:24:40.298Z,-2.78
2022-11-28T02:25:38.608Z,-2.78
2022-11-28T02:26:47.119Z,-2.78
2022-11-28T02:27:23.204Z,-2.78
2022-11-28T02:28:31.101Z,-2.78
2022-11-28T02:29:10.159Z,-2.77
2022-11-28T02:29:58.431Z,-2.77
2022-11-28T02:31:19.945Z,-2.78
2022-11-28T02:32:12.083Z,-2.79
2022-11-28T02:32:56.752Z,-2.79
2022-11-28T02:33:44.865Z,-2.79
2022-11-28T02:34:47.452Z,-2.79
2022-11-28T02:36:03.864Z,-2.79
2022-11-28T02:37:16.165Z,-2.81
2022-11-28T02:38:08.667Z,-2.83
2022-11-28T02:38:53.129Z,-2.84
2022-11-28T02:39:32.164Z,-2.84
2022-11-28T02:40:38.810Z,-2.84
2022-11-28T02:41:35.143Z,-2.84
2022-11-28T02:42:08.414Z,-2.86
2022-11-28T02:42:56.893Z,-2.86
2022-11-28T02:44:12.682Z,-2.85
2022-11-28T02:45:06.957Z,-2.87
2022-11-28T02:45:50.513Z,-2.90
2022-11-28T02:46:41.593Z,-2.89
2022-11-28T02:47:23.898Z,-2.88
2022-11-28T02:48:05.097Z,-2.88
2022-11-28T02:48:58.018Z,-2.88
2022-11-28T02:50:47.693Z,-2.89
2022-11-28T02:51:31.778Z,-2.93
2022-11-28T02:52:12.512Z,-2.93
2022-11-28T02:52:56.899Z,-2.93
2022-11-28T02:53:33.221Z,-2.93
2022-11-28T02:54:09.497Z,-2.93
2022-11-28T02:54:44.653Z,-2.93
2022-11-28T02:55:18.802Z,-2.92
2022-11-28T02:55:53.913Z,-2.91
2022-11-28T02:56:27.341Z,-2.91
2022-11-28T02:57:00.796Z,-2.89
2022-11-28T02:57:43.369Z,-2.89
2022-11-28T02:58:18.779Z,-2.88
2022-11-28T02:58:52.592Z,-2.86
2022-11-28T02:59:31.570Z,-2.87
2022-11-28T03:00:36.251Z,-2.91
2022-11-28T03:01:20.750Z,-2.93
2022-11-28T03:01:54.374Z,-2.93
2022-11-28T03:02:33.446Z,-2.95
2022-11-28T03:03:28.306Z,-3.01
2022-11-28T03:04:16.309Z,-3.09
2022-11-28T03:05:28.316Z,-3.12
2022-11-28T03:06:35.484Z,-3.26
2022-11-28T03:07:22.731Z,-3.17
2022-11-28T03:08:31.531Z,-3.17
2022-11-28T03:09:36.363Z,-3.18
2022-11-28T03:10:28.539Z,-3.19
2022-11-28T03:11:13.222Z,-3.19
2022-11-28T03:12:12.248Z,-3.18
2022-11-28T03:13:08.455Z,-3.21
2022-11-28T03:13:54.903Z,-3.26
2022-11-28T03:14:50.925Z,-3.30
2022-11-28T03:15:35.107Z,-3.33
2022-11-28T03:16:31.435Z,-3.36
2022-11-28T03:17:20.135Z,-3.38
2022-11-28T03:18:21.695Z,-3.40
2022-11-28T03:19:00.953Z,-3.39
2022-11-28T03:19:40.015Z,-3.38
2022-11-28T03:20:45.941Z,-3.37
2022-11-28T03:21:43.240Z,-3.36
2022-11-28T03:22:29.010Z,-3.34
2022-11-28T03:23:29.847Z,-3.32
2022-11-28T03:24:44.968Z,-3.30
2022-11-28T03:25:43.771Z,-3.28
2022-11-28T03:26:26.728Z,-3.27
2022-11-28T03:27:26.446Z,-3.25
2022-11-28T03:28:23.822Z,-3.24
2022-11-28T03:29:18.902Z,-3.24
2022-11-28T03:29:57.290Z,-3.23
2022-11-28T03:30:39.254Z,-3.21
2022-11-28T03:31:20.005Z,-3.20
2022-11-28T03:32:04.230Z,-3.18
2022-11-28T03:32:40.234Z,-3.17
2022-11-28T03:33:16.520Z,-3.17
2022-11-28T03:33:54.293Z,-3.15
2022-11-28T03:34:38.377Z,-3.13
2022-11-28T03:35:19.298Z,-3.21
2022-11-28T03:35:58.435Z,-3.12
2022-11-28T03:36:37.628Z,-3.11
2022-11-28T03:37:28.055Z,-3.10
2022-11-28T03:38:07.353Z,-3.10
2022-11-28T03:38:45.601Z,-3.10
2022-11-28T03:39:24.439Z,-3.09
2022-11-28T03:40:03.103Z,-3.09
2022-11-28T03:40:42.373Z,-3.07
2022-11-28T03:41:22.337Z,-3.07
2022-11-28T03:42:02.097Z,-3.06
2022-11-28T03:42:40.710Z,-3.06
2022-11-28T03:43:19.289Z,-3.06
2022-11-28T03:43:57.068Z,-3.06
2022-11-28T03:44:38.524Z,-3.04
2022-11-28T03:45:11.855Z,-3.04
2022-11-28T03:45:49.934Z,-3.06
2022-11-28T03:46:27.775Z,-3.02
2022-11-28T03:47:05.445Z,-3.04
2022-11-28T03:47:44.577Z,-3.01
2022-11-28T03:48:25.472Z,-3.08
2022-11-28T03:49:01.185Z,-3.01
2022-11-28T03:49:42.298Z,-3.01
2022-11-28T03:50:25.994Z,-3.02
2022-11-28T03:51:05.022Z,-3.03
2022-11-28T03:51:46.541Z,-3.02
2022-11-28T03:52:47.681Z,-3.02
2022-11-28T03:53:31.007Z,-3.03
2022-11-28T03:54:19.313Z,-3.03
2022-11-28T03:55:01.615Z,-3.04
2022-11-28T03:55:48.290Z,-3.04
2022-11-28T03:56:40.757Z,-3.04
2022-11-28T03:57:42.468Z,-3.07
2022-11-28T03:58:24.635Z,-3.06
2022-11-28T03:59:04.207Z,-3.06
2022-11-28T03:59:54.673Z,-3.06
2022-11-28T04:00:28.035Z,-3.05
2022-11-28T04:01:24.324Z,-3.05
2022-11-28T04:02:20.563Z,-3.04
2022-11-28T04:03:09.010Z,-3.06
2022-11-28T04:03:57.284Z,-3.07
2022-11-28T04:04:41.136Z,-3.09
2022-11-28T04:05:27.813Z,-3.10
2022-11-28T04:06:13.680Z,-3.11
2022-11-28T04:06:55.248Z,-3.12
2022-11-28T04:07:45.174Z,-3.11
2022-11-28T04:08:43.280Z,-3.11
2022-11-28T04:09:27.718Z,-3.11
2022-11-28T04:10:19.254Z,-3.11
2022-11-28T04:11:10.560Z,-3.12
2022-11-28T04:11:56.949Z,-3.11
2022-11-28T04:13:07.754Z,-3.13
2022-11-28T04:14:17.208Z,-3.13
2022-11-28T04:15:00.418Z,-3.13
2022-11-28T04:15:41.973Z,-3.12
2022-11-28T04:16:42.266Z,-3.11
2022-11-28T04:17:27.586Z,-3.14
2022-11-28T04:18:15.295Z,-3.10
2022-11-28T04:19:23.865Z,-3.09
2022-11-28T04:20:06.632Z,-3.08
2022-11-28T04:20:49.618Z,-3.06
2022-11-28T04:21:22.938Z,-3.04
2022-11-28T04:22:30.263Z,-3.01
2022-11-28T04:23:10.587Z,-3.00
2022-11-28T04:23:46.293Z,-2.99
2022-11-28T04:24:26.504Z,-2.97
2022-11-28T04:25:07.303Z,-2.95
2022-11-28T04:25:47.258Z,-2.94
2022-11-28T04:26:34.842Z,-2.93
2022-11-28T04:27:13.827Z,-2.92
2022-11-28T04:27:52.720Z,-2.90
2022-11-28T04:28:32.263Z,-2.89
2022-11-28T04:29:10.126Z,-2.86
2022-11-28T04:29:48.307Z,-2.85
2022-11-28T04:30:21.894Z,-2.85
2022-11-28T04:30:58.160Z,-2.82
2022-11-28T04:31:33.122Z,-2.81
2022-11-28T04:32:09.584Z,-2.80
2022-11-28T04:32:50.113Z,-2.78
2022-11-28T04:33:26.898Z,-2.78
2022-11-28T04:34:06.153Z,-2.78
2022-11-28T04:34:43.782Z,-2.78
2022-11-28T04:35:25.920Z,-2.78
2022-11-28T04:36:00.992Z,-2.79
2022-11-28T04:36:38.234Z,-2.77
2022-11-28T04:37:17.044Z,-2.77
2022-11-28T04:37:53.510Z,-2.76
2022-11-28T04:38:29.994Z,-2.76
2022-11-28T04:39:07.728Z,-2.75
2022-11-28T04:39:45.063Z,-2.75
2022-11-28T04:40:20.955Z,-2.73
2022-11-28T04:41:01.136Z,-2.73
2022-11-28T04:41:43.533Z,-2.72
2022-11-28T04:42:21.638Z,-2.72
2022-11-28T04:43:05.167Z,-2.72
2022-11-28T04:43:45.243Z,-2.72
2022-11-28T04:44:30.913Z,-2.71
2022-11-28T04:45:18.646Z,-2.71
2022-11-28T04:45:56.312Z,-2.71
2022-11-28T04:46:39.895Z,-2.71
2022-11-28T04:47:13.391Z,-2.72
2022-11-28T04:47:46.835Z,-2.72
2022-11-28T04:48:20.388Z,-2.70
2022-11-28T04:48:54.060Z,-2.69
2022-11-28T04:49:29.769Z,-2.68
2022-11-28T04:50:04.328Z,-2.66
2022-11-28T04:50:45.779Z,-2.67
2022-11-28T04:51:42.486Z,-2.63
2022-11-28T04:52:26.080Z,-2.63
2022-11-28T04:53:08.264Z,-2.64
2022-11-28T04:53:54.683Z,-2.64
2022-11-28T04:54:38.192Z,-2.64
2022-11-28T04:55:42.643Z,-2.65
2022-11-28T04:56:28.826Z,-2.67
2022-11-28T04:57:18.135Z,-2.67
2022-11-28T04:58:04.061Z,-2.67
2022-11-28T04:58:43.726Z,-2.66
2022-11-28T04:59:17.805Z,-2.67
2022-11-28T04:59:51.830Z,-2.66
2022-11-28T05:00:27.369Z,-2.64
2022-11-28T05:01:05.516Z,-2.63
2022-11-28T05:01:44.426Z,-2.64
2022-11-28T05:02:20.081Z,-2.64
2022-11-28T05:02:55.184Z,-2.65
2022-11-28T05:03:30.044Z,-2.65
2022-11-28T05:04:03.500Z,-2.64
2022-11-28T05:04:37.666Z,-2.63
2022-11-28T05:05:15.758Z,-2.63
2022-11-28T05:05:51.575Z,-2.63
2022-11-28T05:06:34.587Z,-2.66
2022-11-28T05:07:08.894Z,-2.64
2022-11-28T05:07:42.365Z,-2.65
2022-11-28T05:08:16.310Z,-2.65
2022-11-28T05:08:49.687Z,-2.65
2022-11-28T05:09:23.049Z,-2.64
2022-11-28T05:09:57.919Z,-2.64
2022-11-28T05:10:31.412Z,-2.63
2022-11-28T05:11:05.051Z,-2.63
2022-11-28T05:11:38.657Z,-2.64
2022-11-28T05:12:12.032Z,-2.64
2022-11-28T05:12:46.328Z,-2.63
2022-11-28T05:13:19.622Z,-2.63
2022-11-28T05:13:53.389Z,-2.62
2022-11-28T05:14:27.092Z,-2.63
2022-11-28T05:15:00.958Z,-2.63
2022-11-28T05:15:34.641Z,-2.63
2022-11-28T05:16:07.949Z,-2.63
2022-11-28T05:16:41.323Z,-2.63
2022-11-28T05:17:17.743Z,-2.64
2022-11-28T05:17:51.084Z,-2.68
2022-11-28T05:18:24.477Z,-2.69
2022-11-28T05:18:58.136Z,-2.70
2022-11-28T05:19:31.469Z,-2.70
2022-11-28T05:20:06.850Z,-2.71
2022-11-28T05:20:40.158Z,-2.72
2022-11-28T05:21:13.962Z,-2.73
2022-11-28T05:21:47.719Z,-2.75
2022-11-28T05:22:20.938Z,-2.75
2022-11-28T05:22:54.575Z,-2.75
2022-11-28T05:23:27.923Z,-2.75
2022-11-28T05:24:01.375Z,-2.76
2022-11-28T05:24:34.907Z,-2.76
2022-11-28T05:25:08.590Z,-2.76
2022-11-28T05:25:41.908Z,-2.76
2022-11-28T05:26:38.894Z,-2.76
2022-11-28T05:27:12.878Z,-2.79
2022-11-28T05:27:48.130Z,-2.81
2022-11-28T05:28:23.583Z,-2.81
2022-11-28T05:28:57.274Z,-2.90
2022-11-28T05:29:40.104Z,-2.80
2022-11-28T05:30:23.159Z,-2.83
2022-11-28T05:31:01.857Z,-2.85
2022-11-28T05:31:39.574Z,-2.86
2022-11-28T05:32:13.515Z,-2.87
2022-11-28T05:32:46.935Z,-2.86
2022-11-28T05:33:21.208Z,-2.87
2022-11-28T05:33:56.624Z,-2.86
2022-11-28T05:34:31.373Z,-2.87
2022-11-28T05:35:12.898Z,-2.87
2022-11-28T05:35:54.807Z,-2.88
2022-11-28T05:36:29.727Z,-2.90
2022-11-28T05:37:05.297Z,-2.90
2022-11-28T05:37:46.583Z,-2.90
2022-11-28T05:38:21.521Z,-2.91
2022-11-28T05:38:55.386Z,-2.92
2022-11-28T05:39:34.538Z,-2.91
2022-11-28T05:40:27.824Z,-2.93
2022-11-28T05:41:10.575Z,-2.93
2022-11-28T05:41:47.276Z,-2.95
2022-11-28T05:42:21.655Z,-2.94
2022-11-28T05:43:03.098Z,-2.95
2022-11-28T05:43:40.704Z,-2.96
2022-11-28T05:44:15.399Z,-2.96
2022-11-28T05:44:52.286Z,-2.96
2022-11-28T05:45:30.824Z,-2.97
2022-11-28T05:46:08.366Z,-2.96
2022-11-28T05:46:42.155Z,-2.97
2022-11-28T05:47:28.687Z,-2.97
2022-11-28T05:48:13.430Z,-2.99
2022-11-28T05:49:00.147Z,-3.01
2022-11-28T05:49:33.697Z,-3.01
2022-11-28T05:50:20.819Z,-3.01
2022-11-28T05:50:57.625Z,-3.02
2022-11-28T05:51:33.274Z,-3.06
2022-11-28T05:52:20.678Z,-3.07
2022-11-28T05:52:54.265Z,-3.07
2022-11-28T05:53:32.280Z,-3.07
2022-11-28T05:54:12.218Z,-3.07
2022-11-28T05:55:00.644Z,-3.10
2022-11-28T05:55:38.607Z,-3.08
2022-11-28T05:56:15.337Z,-3.07
2022-11-28T05:56:58.839Z,-3.16
2022-11-28T05:57:32.506Z,-3.07
2022-11-28T05:58:06.733Z,-3.07
2022-11-28T05:58:41.685Z,-3.07
2022-11-28T05:59:17.811Z,-3.08
2022-11-28T05:59:53.490Z,-3.06
2022-11-28T06:00:27.141Z,-3.05
2022-11-28T06:01:00.701Z,-3.05
2022-11-28T06:01:34.735Z,-3.04
2022-11-28T06:02:22.338Z,-3.05
2022-11-28T06:03:11.882Z,-3.18
2022-11-28T06:03:48.072Z,-3.07
2022-11-28T06:04:21.925Z,-3.10
2022-11-28T06:04:55.699Z,-3.07
2022-11-28T06:05:43.505Z,-3.06
2022-11-28T06:06:24.068Z,-3.07
2022-11-28T06:07:16.812Z,-3.10
2022-11-28T06:07:53.723Z,-3.10
2022-11-28T06:08:28.674Z,-3.10
2022-11-28T06:09:09.960Z,-3.10
2022-11-28T06:09:43.688Z,-3.11
2022-11-28T06:10:19.937Z,-3.10
2022-11-28T06:10:58.377Z,-3.09
2022-11-28T06:11:33.691Z,-3.09
2022-11-28T06:12:09.065Z,-3.10
2022-11-28T06:12:51.673Z,-3.08
2022-11-28T06:13:32.157Z,-3.09
2022-11-28T06:14:10.365Z,-3.10
2022-11-28T06:14:44.431Z,-3.10
2022-11-28T06:15:32.644Z,-3.10
2022-11-28T06:16:25.393Z,-3.11
2022-11-28T06:17:11.669Z,-3.14
2022-11-28T06:17:45.392Z,-3.21
2022-11-28T06:18:30.008Z,-3.17
2022-11-28T06:19:06.926Z,-3.13
2022-11-28T06:19:40.797Z,-3.12
2022-11-28T06:20:26.632Z,-3.11
2022-11-28T06:21:06.251Z,-3.11
2022-11-28T06:21:43.715Z,-3.10
2022-11-28T06:22:21.939Z,-3.10
2022-11-28T06:22:55.597Z,-3.09
2022-11-28T06:23:32.361Z,-3.09
2022-11-28T06:24:11.480Z,-3.08
2022-11-28T06:24:55.618Z,-3.10
2022-11-28T06:25:36.489Z,-3.09
2022-11-28T06:26:15.117Z,-3.08
2022-11-28T06:27:14.485Z,-3.09
2022-11-28T06:27:58.031Z,-3.10
2022-11-28T06:28:38.463Z,-3.09
2022-11-28T06:29:20.635Z,-3.09
2022-11-28T06:29:54.148Z,-3.09
2022-11-28T06:30:30.771Z,-3.10
2022-11-28T06:31:08.367Z,-3.09
2022-11-28T06:31:44.976Z,-3.09
2022-11-28T06:32:22.930Z,-3.09
2022-11-28T06:32:59.072Z,-3.18
2022-11-28T06:33:38.598Z,-3.24
2022-11-28T06:34:19.692Z,-3.08
2022-11-28T06:34:55.937Z,-3.07
2022-11-28T06:35:32.642Z,-3.07
2022-11-28T06:36:11.947Z,-3.06
2022-11-28T06:36:47.818Z,-3.10
2022-11-28T06:37:22.676Z,-3.05
2022-11-28T06:37:59.644Z,-3.04
2022-11-28T06:38:35.056Z,-3.02
2022-11-28T06:39:22.700Z,-3.00
2022-11-28T06:39:58.098Z,-3.11
2022-11-28T06:40:35.398Z,-2.99
2022-11-28T06:41:20.976Z,-2.97
2022-11-28T06:41:54.693Z,-2.97
2022-11-28T06:42:57.747Z,-2.95
2022-11-28T06:43:34.927Z,-2.96
2022-11-28T06:44:15.880Z,-2.95
2022-11-28T06:44:55.533Z,-3.02
2022-11-28T06:45:38.854Z,-2.93
2022-11-28T06:46:41.278Z,-2.91
2022-11-28T06:47:21.060Z,-2.93
2022-11-28T06:47:57.771Z,-2.99
2022-11-28T06:48:31.466Z,-2.89
2022-11-28T06:49:08.244Z,-2.88
2022-11-28T06:49:44.676Z,-2.89
2022-11-28T06:50:22.897Z,-2.90
2022-11-28T06:51:08.423Z,-2.89
2022-11-28T06:51:42.978Z,-2.85
2022-11-28T06:52:27.733Z,-2.84
2022-11-28T06:53:20.954Z,-2.93
2022-11-28T06:53:56.235Z,-2.90
2022-11-28T06:54:41.792Z,-2.84
2022-11-28T06:55:25.654Z,-2.86
2022-11-28T06:56:21.513Z,-2.97
2022-11-28T06:56:55.838Z,-3.01
2022-11-28T06:57:45.469Z,-3.06
2022-11-28T06:58:21.941Z,-3.26
2022-11-28T06:58:57.921Z,-3.09
2022-11-28T06:59:37.674Z,-3.04
2022-11-28T07:00:12.113Z,-3.01
2022-11-28T07:00:49.767Z,-2.97
2022-11-28T07:01:25.682Z,-2.93
2022-11-28T07:02:07.421Z,-2.90
2022-11-28T07:02:50.847Z,-2.86
2022-11-28T07:03:24.611Z,-2.83
2022-11-28T07:03:59.142Z,-3.01
2022-11-28T07:04:38.475Z,-2.79
2022-11-28T07:05:21.058Z,-2.72
2022-11-28T07:05:55.025Z,-2.68
2022-11-28T07:06:31.870Z,-2.65
2022-11-28T07:07:13.711Z,-2.60
2022-11-28T07:07:59.697Z,-2.76
2022-11-28T07:08:35.325Z,-2.53
2022-11-28T07:09:09.062Z,-2.49
2022-11-28T07:09:42.776Z,-2.44
2022-11-28T07:10:39.815Z,-2.41
2022-11-28T07:11:30.328Z,-2.35
2022-11-28T07:12:09.865Z,-2.32
2022-11-28T07:12:46.164Z,-2.29
2022-11-28T07:13:21.974Z,-2.24
2022-11-28T07:13:59.158Z,-2.20
2022-11-28T07:14:46.992Z,-2.15
2022-11-28T07:15:24.055Z,-2.12
2022-11-28T07:16:03.138Z,-2.09
2022-11-28T07:16:39.649Z,-2.07
2022-11-28T07:17:20.126Z,-2.03
2022-11-28T07:18:09.057Z,-2.03
2022-11-28T07:18:43.786Z,-1.95
2022-11-28T07:19:23.225Z,-1.92
2022-11-28T07:19:56.970Z,-1.99
2022-11-28T07:20:33.157Z,-1.86
2022-11-28T07:21:09.789Z,-1.83
2022-11-28T07:21:57.522Z,-1.79
2022-11-28T07:22:46.453Z,-1.76
2022-11-28T07:23:22.382Z,-1.74
2022-11-28T07:24:00.113Z,-1.80
2022-11-28T07:24:41.561Z,-1.66
2022-11-28T07:25:36.919Z,-1.61
2022-11-28T07:26:21.414Z,-1.56
2022-11-28T07:26:55.123Z,-1.51
2022-11-28T07:27:33.178Z,-1.47
2022-11-28T07:28:12.166Z,-1.41
2022-11-28T07:28:56.442Z,-1.35
2022-11-28T07:29:44.595Z,-1.34
2022-11-28T07:30:41.842Z,-1.28
2022-11-28T07:31:34.102Z,-1.23
2022-11-28T07:32:12.240Z,-1.25
2022-11-28T07:32:48.880Z,-1.22
2022-11-28T07:33:22.501Z,-1.12
2022-11-28T07:34:01.390Z,-1.09
2022-11-28T07:34:44.639Z,-1.05
2022-11-28T07:35:27.493Z,-1.02
2022-11-28T07:36:11.669Z,-0.99
2022-11-28T07:36:46.394Z,-0.97
2022-11-28T07:37:19.872Z,-0.92
2022-11-28T07:37:57.359Z,-0.89
2022-11-28T07:38:37.570Z,-0.85
2022-11-28T07:39:15.925Z,-0.82
2022-11-28T07:39:49.263Z,-0.80
2022-11-28T07:40:23.242Z,-0.76
2022-11-28T07:41:03.341Z,-0.73
2022-11-28T07:41:50.982Z,-0.70
2022-11-28T07:42:30.528Z,-0.67
2022-11-28T07:43:24.672Z,-0.62
2022-11-28T07:44:22.208Z,-0.58
2022-11-28T07:44:57.083Z,-0.54
2022-11-28T07:45:59.386Z,-0.51
2022-11-28T07:46:50.303Z,-0.47
2022-11-28T07:47:27.816Z,-0.45
2022-11-28T07:48:08.527Z,-0.41
2022-11-28T07:48:42.445Z,-0.38
2022-11-28T07:49:16.398Z,-0.34
2022-11-28T07:49:52.141Z,-0.30
2022-11-28T07:50:53.500Z,-0.26
2022-11-28T07:51:47.735Z,-0.25
2022-11-28T07:52:25.355Z,-0.15
2022-11-28T07:53:11.347Z,-0.11
2022-11-28T07:53:46.838Z,-0.06
2022-11-28T07:54:25.499Z,-0.02
2022-11-28T07:55:19.354Z,0.01
2022-11-28T07:55:52.918Z,0.06
2022-11-28T07:56:50.112Z,0.10
2022-11-28T07:57:27.517Z,0.14
2022-11-28T07:58:10.018Z,0.16
2022-11-28T07:58:45.970Z,0.15
2022-11-28T07:59:26.883Z,0.17
2022-11-28T08:00:00.555Z,0.20
2022-11-28T08:00:41.616Z,0.21
2022-11-28T08:01:19.422Z,0.14
2022-11-28T08:01:54.221Z,0.26
2022-11-28T08:02:57.895Z,0.27
2022-11-28T08:03:32.879Z,0.28
2022-11-28T08:05:01.612Z,0.33
2022-11-28T08:05:37.111Z,0.36
2022-11-28T08:06:11.006Z,0.38
2022-11-28T08:06:44.797Z,0.40
2022-11-28T08:07:20.043Z,0.41
2022-11-28T08:07:53.622Z,0.43
2022-11-28T08:08:33.170Z,0.46
2022-11-28T08:09:07.353Z,0.49
2022-11-28T08:09:40.874Z,0.53
2022-11-28T08:10:14.264Z,0.56
2022-11-28T08:10:47.582Z,0.54
2022-11-28T08:11:25.308Z,0.55
2022-11-28T08:12:48.436Z,0.53
2022-11-28T08:13:22.008Z,0.54
2022-11-28T08:13:57.925Z,0.56
2022-11-28T08:14:39.523Z,0.58
2022-11-28T08:15:15.366Z,0.63
2022-11-28T08:15:48.802Z,0.63
2022-11-28T08:16:24.936Z,0.66
2022-11-28T08:17:08.226Z,0.62
2022-11-28T08:17:46.148Z,0.72
2022-11-28T08:18:22.609Z,0.75
2022-11-28T08:19:01.819Z,0.76
2022-11-28T08:19:38.081Z,0.79
2022-11-28T08:20:19.267Z,0.80
2022-11-28T08:21:12.836Z,0.74
2022-11-28T08:21:46.336Z,0.85
2022-11-28T08:22:27.021Z,0.90
2022-11-28T08:23:26.526Z,0.95
2022-11-28T08:24:20.748Z,0.97
2022-11-28T08:24:55.313Z,1.01
2022-11-28T08:25:37.691Z,1.03
2022-11-28T08:26:17.408Z,1.03
2022-11-28T08:26:54.948Z,1.05
2022-11-28T08:27:32.733Z,1.09
2022-11-28T08:28:22.067Z,1.10
2022-11-28T08:29:01.779Z,1.11
2022-11-28T08:29:41.083Z,0.98
2022-11-28T08:31:17.521Z,1.01
2022-11-28T08:31:53.085Z,1.16
2022-11-28T08:32:46.291Z,1.18
2022-11-28T08:33:24.872Z,1.15
2022-11-28T08:34:24.814Z,1.00
2022-11-28T08:35:37.781Z,1.12
2022-11-28T08:36:13.523Z,1.10
2022-11-28T08:36:52.312Z,1.11
2022-11-28T08:37:31.787Z,1.15
2022-11-28T08:38:09.616Z,1.15
2022-11-28T08:38:57.821Z,1.16
2022-11-28T08:39:43.850Z,1.17
2022-11-28T08:40:17.397Z,1.20
2022-11-28T08:41:00.758Z,1.23
2022-11-28T08:41:50.126Z,1.26
2022-11-28T08:42:26.494Z,1.27